createdAt,value
2023-11-07T00:00:11.129Z,996.42
2023-11-07T00:00:41.131Z,996.44
2023-11-07T00:01:11.128Z,996.42
2023-11-07T00:01:41.135Z,996.45
2023-11-07T00:02:11.112Z,996.43
2023-11-07T00:02:41.160Z,996.43
2023-11-07T00:03:11.257Z,996.44
2023-11-07T00:03:41.238Z,996.46
2023-11-07T00:04:11.190Z,996.45
2023-11-07T00:04:41.105Z,996.43
2023-11-07T00:05:11.110Z,996.43
2023-11-07T00:05:41.138Z,996.47
2023-11-07T00:06:11.113Z,996.49
2023-11-07T00:06:41.091Z,996.50
2023-11-07T00:07:11.069Z,996.48
2023-11-07T00:07:41.056Z,996.49
2023-11-07T00:08:11.059Z,996.50
2023-11-07T00:08:41.073Z,996.51
2023-11-07T00:09:11.051Z,996.52
2023-11-07T00:09:41.036Z,996.51
2023-11-07T00:10:11.022Z,996.49
2023-11-07T00:10:41.018Z,996.50
2023-11-07T00:11:11.023Z,996.53
2023-11-07T00:11:41.087Z,996.54
2023-11-07T00:12:11.016Z,996.55
2023-11-07T00:12:41.018Z,996.56
2023-11-07T00:13:11.037Z,996.56
2023-11-07T00:13:40.991Z,996.55
2023-11-07T00:14:11.000Z,996.57
2023-11-07T00:14:41.029Z,996.59
2023-11-07T00:15:10.978Z,996.60
2023-11-07T00:15:40.973Z,996.59
2023-11-07T00:16:10.968Z,996.58
2023-11-07T00:16:40.975Z,996.60
2023-11-07T00:17:10.957Z,996.59
2023-11-07T00:17:41.093Z,996.60
2023-11-07T00:18:11.041Z,996.60
2023-11-07T00:18:41.053Z,996.61
2023-11-07T00:19:11.081Z,996.63
2023-11-07T00:19:40.944Z,996.61
2023-11-07T00:20:10.935Z,996.60
2023-11-07T00:20:40.935Z,996.60
2023-11-07T00:21:11.007Z,996.63
2023-11-07T00:21:40.903Z,996.64
2023-11-07T00:22:10.896Z,996.65
2023-11-07T00:22:40.912Z,996.64
2023-11-07T00:23:10.885Z,996.60
2023-11-07T00:23:40.983Z,996.61
2023-11-07T00:24:10.875Z,996.61
2023-11-07T00:24:40.879Z,996.62
2023-11-07T00:25:10.900Z,996.62
2023-11-07T00:25:40.860Z,996.63
2023-11-07T00:26:10.863Z,996.66
2023-11-07T00:26:40.870Z,996.65
2023-11-07T00:27:10.888Z,996.65
2023-11-07T00:27:40.854Z,996.65
2023-11-07T00:28:10.830Z,996.64
2023-11-07T00:28:40.858Z,996.65
2023-11-07T00:29:10.832Z,996.65
2023-11-07T00:29:40.854Z,996.68
2023-11-07T00:30:10.823Z,996.67
2023-11-07T00:30:40.833Z,996.66
2023-11-07T00:31:10.810Z,996.69
2023-11-07T00:31:40.811Z,996.69
2023-11-07T00:32:10.799Z,996.70
2023-11-07T00:32:40.866Z,996.69
2023-11-07T00:33:10.875Z,996.69
2023-11-07T00:33:40.897Z,996.69
2023-11-07T00:34:10.955Z,996.69
2023-11-07T00:34:40.816Z,996.69
2023-11-07T00:35:10.758Z,996.71
2023-11-07T00:35:40.769Z,996.67
2023-11-07T00:36:10.762Z,996.66
2023-11-07T00:36:40.741Z,996.70
2023-11-07T00:37:10.759Z,996.67
2023-11-07T00:37:40.739Z,996.69
2023-11-07T00:38:10.730Z,996.71
2023-11-07T00:38:40.799Z,996.68
2023-11-07T00:39:10.730Z,996.71
2023-11-07T00:39:40.719Z,996.75
2023-11-07T00:40:10.800Z,996.72
2023-11-07T00:40:40.808Z,996.75
2023-11-07T00:41:10.765Z,996.78
2023-11-07T00:41:40.709Z,996.79
2023-11-07T00:42:10.695Z,996.74
2023-11-07T00:42:40.696Z,996.77
2023-11-07T00:43:10.672Z,996.75
2023-11-07T00:43:40.669Z,996.79
2023-11-07T00:44:10.669Z,996.78
2023-11-07T00:44:40.678Z,996.76
2023-11-07T00:45:10.658Z,996.77
2023-11-07T00:45:40.649Z,996.76
2023-11-07T00:46:10.663Z,996.80
2023-11-07T00:46:40.642Z,996.81
2023-11-07T00:47:10.645Z,996.81
2023-11-07T00:47:40.778Z,996.81
2023-11-07T00:48:10.798Z,996.80
2023-11-07T00:48:40.797Z,996.83
2023-11-07T00:49:10.820Z,996.82
2023-11-07T00:49:40.613Z,996.78
2023-11-07T00:50:10.617Z,996.80
2023-11-07T00:50:40.601Z,996.82
2023-11-07T00:51:10.604Z,996.83
2023-11-07T00:51:40.584Z,996.84
2023-11-07T00:52:10.599Z,996.85
2023-11-07T00:52:41.456Z,996.87
2023-11-07T00:53:10.573Z,996.85
2023-11-07T00:53:40.613Z,996.88
2023-11-07T00:54:10.561Z,996.89
2023-11-07T00:54:40.600Z,996.91
2023-11-07T00:55:10.593Z,996.91
2023-11-07T00:55:40.554Z,996.92
2023-11-07T00:56:10.549Z,996.89
2023-11-07T00:56:40.543Z,996.90
2023-11-07T00:57:10.568Z,996.91
2023-11-07T00:57:40.537Z,996.92
2023-11-07T00:58:10.556Z,996.90
2023-11-07T00:58:40.522Z,996.94
2023-11-07T00:59:10.519Z,996.92
2023-11-07T00:59:40.587Z,996.93
2023-11-07T01:00:10.503Z,996.93
2023-11-07T01:00:40.499Z,996.95
2023-11-07T01:01:10.483Z,996.98
2023-11-07T01:01:40.481Z,996.96
2023-11-07T01:02:10.477Z,996.98
2023-11-07T01:02:41.840Z,997.00
2023-11-07T01:03:10.586Z,997.00
2023-11-07T01:03:40.645Z,997.00
2023-11-07T01:04:10.623Z,997.02
2023-11-07T01:04:40.548Z,997.04
2023-11-07T01:05:10.469Z,997.05
2023-11-07T01:05:40.655Z,997.04
2023-11-07T01:06:10.514Z,997.02
2023-11-07T01:06:40.532Z,997.05
2023-11-07T01:07:10.426Z,997.05
2023-11-07T01:07:40.424Z,997.03
2023-11-07T01:08:10.423Z,997.06
2023-11-07T01:08:40.468Z,997.07
2023-11-07T01:09:10.487Z,997.07
2023-11-07T01:09:40.411Z,997.09
2023-11-07T01:10:10.397Z,997.07
2023-11-07T01:10:40.433Z,997.08
2023-11-07T01:11:10.376Z,997.08
2023-11-07T01:11:40.390Z,997.11
2023-11-07T01:12:10.371Z,997.11
2023-11-07T01:12:40.360Z,997.10
2023-11-07T01:13:10.380Z,997.13
2023-11-07T01:13:40.351Z,997.13
2023-11-07T01:14:10.355Z,997.12
2023-11-07T01:14:40.420Z,997.10
2023-11-07T01:15:10.381Z,997.11
2023-11-07T01:15:40.326Z,997.09
2023-11-07T01:16:10.334Z,997.14
2023-11-07T01:16:40.329Z,997.13
2023-11-07T01:17:10.316Z,997.13
2023-11-07T01:17:40.432Z,997.12
2023-11-07T01:18:10.418Z,997.15
2023-11-07T01:18:40.448Z,997.13
2023-11-07T01:19:10.373Z,997.13
2023-11-07T01:19:40.297Z,997.12
2023-11-07T01:20:10.292Z,997.15
2023-11-07T01:20:40.306Z,997.15
2023-11-07T01:21:10.285Z,997.15
2023-11-07T01:21:40.292Z,997.11
2023-11-07T01:22:10.265Z,997.14
2023-11-07T01:22:40.283Z,997.19
2023-11-07T01:23:10.298Z,997.19
2023-11-07T01:23:40.306Z,997.18
2023-11-07T01:24:10.249Z,997.19
2023-11-07T01:24:40.270Z,997.19
2023-11-07T01:25:10.281Z,997.15
2023-11-07T01:25:40.242Z,997.19
2023-11-07T01:26:10.239Z,997.19
2023-11-07T01:26:40.257Z,997.17
2023-11-07T01:27:10.215Z,997.19
2023-11-07T01:27:40.217Z,997.21
2023-11-07T01:28:10.213Z,997.23
2023-11-07T01:28:40.213Z,997.21
2023-11-07T01:29:10.192Z,997.23
2023-11-07T01:29:40.217Z,997.26
2023-11-07T01:30:10.251Z,997.28
2023-11-07T01:30:40.191Z,997.24
2023-11-07T01:31:10.190Z,997.25
2023-11-07T01:31:40.169Z,997.26
2023-11-07T01:32:10.164Z,997.27
2023-11-07T01:32:40.300Z,997.28
2023-11-07T01:33:10.245Z,997.30
2023-11-07T01:33:40.210Z,997.29
2023-11-07T01:34:10.274Z,997.28
2023-11-07T01:34:40.132Z,997.30
2023-11-07T01:35:10.134Z,997.28
2023-11-07T01:35:40.138Z,997.27
2023-11-07T01:36:10.135Z,997.31
2023-11-07T01:36:40.156Z,997.33
2023-11-07T01:37:10.145Z,997.30
2023-11-07T01:37:40.108Z,997.28
2023-11-07T01:38:10.099Z,997.27
2023-11-07T01:38:40.118Z,997.29
2023-11-07T01:39:10.102Z,997.30
2023-11-07T01:39:40.083Z,997.29
2023-11-07T01:40:10.088Z,997.33
2023-11-07T01:40:40.077Z,997.31
2023-11-07T01:41:10.070Z,997.31
2023-11-07T01:41:40.092Z,997.31
2023-11-07T01:42:10.164Z,997.31
2023-11-07T01:42:40.056Z,997.35
2023-11-07T01:43:10.072Z,997.32
2023-11-07T01:43:40.059Z,997.34
2023-11-07T01:44:10.038Z,997.37
2023-11-07T01:44:40.059Z,997.31
2023-11-07T01:45:10.049Z,997.33
2023-11-07T01:45:40.021Z,997.32
2023-11-07T01:46:10.018Z,997.35
2023-11-07T01:46:40.017Z,997.32
2023-11-07T01:47:10.002Z,997.34
2023-11-07T01:47:40.169Z,997.35
2023-11-07T01:48:10.062Z,997.31
2023-11-07T01:48:40.100Z,997.32
2023-11-07T01:49:09.999Z,997.33
2023-11-07T01:49:39.977Z,997.35
2023-11-07T01:50:09.971Z,997.34
2023-11-07T01:50:40.032Z,997.36
2023-11-07T01:51:10.031Z,997.38
2023-11-07T01:51:39.965Z,997.35
2023-11-07T01:52:09.955Z,997.35
2023-11-07T01:52:39.953Z,997.38
2023-11-07T01:53:10.034Z,997.35
2023-11-07T01:53:39.970Z,997.36
2023-11-07T01:54:09.930Z,997.37
2023-11-07T01:54:39.923Z,997.35
2023-11-07T01:55:09.927Z,997.35
2023-11-07T01:55:39.922Z,997.37
2023-11-07T01:56:09.906Z,997.35
2023-11-07T01:56:39.917Z,997.37
2023-11-07T01:57:09.899Z,997.35
2023-11-07T01:57:39.901Z,997.35
2023-11-07T01:58:09.885Z,997.32
2023-11-07T01:58:39.922Z,997.27
2023-11-07T01:59:09.883Z,997.32
2023-11-07T01:59:39.901Z,997.34
2023-11-07T02:00:09.871Z,997.32
2023-11-07T02:00:39.864Z,997.31
2023-11-07T02:01:09.856Z,997.33
2023-11-07T02:01:39.855Z,997.34
2023-11-07T02:02:09.849Z,997.35
2023-11-07T02:02:39.948Z,997.35
2023-11-07T02:03:09.980Z,997.31
2023-11-07T02:03:39.975Z,997.29
2023-11-07T02:04:09.977Z,997.28
2023-11-07T02:04:39.841Z,997.31
2023-11-07T02:05:09.854Z,997.30
2023-11-07T02:05:39.827Z,997.29
2023-11-07T02:06:09.891Z,997.27
2023-11-07T02:06:39.799Z,997.31
2023-11-07T02:07:09.802Z,997.29
2023-11-07T02:07:39.786Z,997.31
2023-11-07T02:08:09.778Z,997.28
2023-11-07T02:08:39.814Z,997.29
2023-11-07T02:09:09.798Z,997.33
2023-11-07T02:09:39.787Z,997.29
2023-11-07T02:10:09.763Z,997.33
2023-11-07T02:10:39.763Z,997.34
2023-11-07T02:11:09.744Z,997.34
2023-11-07T02:11:39.789Z,997.34
2023-11-07T02:12:09.821Z,997.32
2023-11-07T02:12:39.737Z,997.39
2023-11-07T02:13:09.730Z,997.35
2023-11-07T02:13:39.740Z,997.38
2023-11-07T02:14:09.723Z,997.38
2023-11-07T02:14:39.774Z,997.39
2023-11-07T02:15:09.757Z,997.39
2023-11-07T02:15:39.701Z,997.42
2023-11-07T02:16:09.718Z,997.43
2023-11-07T02:16:39.696Z,997.42
2023-11-07T02:17:09.682Z,997.43
2023-11-07T02:17:39.787Z,997.44
2023-11-07T02:18:09.776Z,997.45
2023-11-07T02:18:39.777Z,997.46
2023-11-07T02:19:09.731Z,997.48
2023-11-07T02:19:39.665Z,997.46
2023-11-07T02:20:09.655Z,997.47
2023-11-07T02:20:39.997Z,997.47
2023-11-07T02:21:09.689Z,997.47
2023-11-07T02:21:39.643Z,997.48
2023-11-07T02:22:09.640Z,997.47
2023-11-07T02:22:39.632Z,997.48
2023-11-07T02:23:09.622Z,997.49
2023-11-07T02:23:39.680Z,997.49
2023-11-07T02:24:09.714Z,997.48
2023-11-07T02:24:39.660Z,997.46
2023-11-07T02:25:09.605Z,997.45
2023-11-07T02:25:39.603Z,997.47
2023-11-07T02:26:09.612Z,997.47
2023-11-07T02:26:39.602Z,997.44
2023-11-07T02:27:09.584Z,997.40
2023-11-07T02:27:39.595Z,997.40
2023-11-07T02:28:09.565Z,997.43
2023-11-07T02:28:39.563Z,997.41
2023-11-07T02:29:09.558Z,997.40
2023-11-07T02:29:39.590Z,997.39
2023-11-07T02:30:09.577Z,997.38
2023-11-07T02:30:39.551Z,997.39
2023-11-07T02:31:09.537Z,997.37
2023-11-07T02:31:39.548Z,997.34
2023-11-07T02:32:09.522Z,997.34
2023-11-07T02:32:39.630Z,997.39
2023-11-07T02:33:09.630Z,997.32
2023-11-07T02:33:39.645Z,997.32
2023-11-07T02:34:09.627Z,997.30
2023-11-07T02:34:39.500Z,997.33
2023-11-07T02:35:09.492Z,997.34
2023-11-07T02:35:39.517Z,997.33
2023-11-07T02:36:09.517Z,997.35
2023-11-07T02:36:39.483Z,997.32
2023-11-07T02:37:09.509Z,997.35
2023-11-07T02:37:39.484Z,997.34
2023-11-07T02:38:09.463Z,997.32
2023-11-07T02:38:39.602Z,997.31
2023-11-07T02:39:09.469Z,997.31
2023-11-07T02:39:39.441Z,997.31
2023-11-07T02:40:09.436Z,997.35
2023-11-07T02:40:39.443Z,997.35
2023-11-07T02:41:09.427Z,997.34
2023-11-07T02:41:39.498Z,997.34
2023-11-07T02:42:09.457Z,997.36
2023-11-07T02:42:39.431Z,997.35
2023-11-07T02:43:09.406Z,997.33
2023-11-07T02:43:39.396Z,997.35
2023-11-07T02:44:09.397Z,997.33
2023-11-07T02:44:39.404Z,997.33
2023-11-07T02:45:09.440Z,997.34
2023-11-07T02:45:39.380Z,997.31
2023-11-07T02:46:09.376Z,997.35
2023-11-07T02:46:39.407Z,997.35
2023-11-07T02:47:09.409Z,997.33
2023-11-07T02:47:42.573Z,997.34
2023-11-07T02:48:09.458Z,997.32
2023-11-07T02:48:39.519Z,997.33
2023-11-07T02:49:09.481Z,997.34
2023-11-07T02:49:39.340Z,997.33
2023-11-07T02:50:09.355Z,997.34
2023-11-07T02:50:39.360Z,997.35
2023-11-07T02:51:09.366Z,997.32
2023-11-07T02:51:39.313Z,997.35
2023-11-07T02:52:09.353Z,997.36
2023-11-07T02:52:39.307Z,997.32
2023-11-07T02:53:09.306Z,997.33
2023-11-07T02:53:40.190Z,997.34
2023-11-07T02:54:09.343Z,997.35
2023-11-07T02:54:39.295Z,997.34
2023-11-07T02:55:09.291Z,997.33
2023-11-07T02:55:39.291Z,997.33
2023-11-07T02:56:09.277Z,997.34
2023-11-07T02:56:39.286Z,997.32
2023-11-07T02:57:09.278Z,997.32
2023-11-07T02:57:39.271Z,997.31
2023-11-07T02:58:09.244Z,997.33
2023-11-07T02:58:39.249Z,997.33
2023-11-07T02:59:09.265Z,997.36
2023-11-07T02:59:39.257Z,997.31
2023-11-07T03:00:09.249Z,997.33
2023-11-07T03:00:39.261Z,997.32
2023-11-07T03:01:09.267Z,997.32
2023-11-07T03:01:39.213Z,997.31
2023-11-07T03:02:09.214Z,997.25
2023-11-07T03:02:39.287Z,997.29
2023-11-07T03:03:09.263Z,997.28
2023-11-07T03:03:39.340Z,997.29
2023-11-07T03:04:09.197Z,997.31
2023-11-07T03:04:39.186Z,997.30
2023-11-07T03:05:09.170Z,997.31
2023-11-07T03:05:39.221Z,997.32
2023-11-07T03:06:09.220Z,997.33
2023-11-07T03:06:39.252Z,997.32
2023-11-07T03:07:09.159Z,997.29
2023-11-07T03:07:39.146Z,997.31
2023-11-07T03:08:09.192Z,997.31
2023-11-07T03:08:39.159Z,997.31
2023-11-07T03:09:09.164Z,997.33
2023-11-07T03:09:39.131Z,997.36
2023-11-07T03:10:09.154Z,997.34
2023-11-07T03:10:39.155Z,997.35
2023-11-07T03:11:09.108Z,997.33
2023-11-07T03:11:39.120Z,997.35
2023-11-07T03:12:09.177Z,997.39
2023-11-07T03:12:39.093Z,997.40
2023-11-07T03:13:09.086Z,997.38
2023-11-07T03:13:39.086Z,997.38
2023-11-07T03:14:09.081Z,997.36
2023-11-07T03:14:39.106Z,997.33
2023-11-07T03:15:09.132Z,997.37
2023-11-07T03:15:39.080Z,997.40
2023-11-07T03:16:09.181Z,997.37
2023-11-07T03:16:39.047Z,997.34
2023-11-07T03:17:09.064Z,997.38
2023-11-07T03:17:39.077Z,997.38
2023-11-07T03:18:09.666Z,997.40
2023-11-07T03:18:39.152Z,997.42
2023-11-07T03:19:09.216Z,997.44
2023-11-07T03:19:39.031Z,997.42
2023-11-07T03:20:09.049Z,997.39
2023-11-07T03:20:39.044Z,997.41
2023-11-07T03:21:09.079Z,997.44
2023-11-07T03:21:39.005Z,997.43
2023-11-07T03:22:09.046Z,997.43
2023-11-07T03:22:39.003Z,997.42
2023-11-07T03:23:08.985Z,997.43
2023-11-07T03:23:39.019Z,997.47
2023-11-07T03:24:09.029Z,997.46
2023-11-07T03:24:38.968Z,997.45
2023-11-07T03:25:08.966Z,997.48
2023-11-07T03:25:38.961Z,997.48
2023-11-07T03:26:08.973Z,997.48
2023-11-07T03:26:38.995Z,997.49
2023-11-07T03:27:08.989Z,997.45
2023-11-07T03:27:38.934Z,997.48
2023-11-07T03:28:08.928Z,997.48
2023-11-07T03:28:38.949Z,997.47
2023-11-07T03:29:08.957Z,997.48
2023-11-07T03:29:38.933Z,997.47
2023-11-07T03:30:08.971Z,997.49
2023-11-07T03:30:38.954Z,997.49
2023-11-07T03:31:08.894Z,997.50
2023-11-07T03:31:38.897Z,997.46
2023-11-07T03:32:08.907Z,997.47
2023-11-07T03:32:38.970Z,997.47
2023-11-07T03:33:08.955Z,997.49
2023-11-07T03:33:38.976Z,997.50
2023-11-07T03:34:08.898Z,997.46
2023-11-07T03:34:38.863Z,997.45
2023-11-07T03:35:08.860Z,997.48
2023-11-07T03:35:38.875Z,997.49
2023-11-07T03:36:08.943Z,997.51
2023-11-07T03:36:38.836Z,997.52
2023-11-07T03:37:08.833Z,997.50
2023-11-07T03:37:38.844Z,997.54
2023-11-07T03:38:08.826Z,997.46
2023-11-07T03:38:38.837Z,997.48
2023-11-07T03:39:08.829Z,997.50
2023-11-07T03:39:38.814Z,997.50
2023-11-07T03:40:08.821Z,997.51
2023-11-07T03:40:38.805Z,997.50
2023-11-07T03:41:08.792Z,997.48
2023-11-07T03:41:38.808Z,997.49
2023-11-07T03:42:08.906Z,997.49
2023-11-07T03:42:38.800Z,997.48
2023-11-07T03:43:08.838Z,997.47
2023-11-07T03:43:38.778Z,997.47
2023-11-07T03:44:08.763Z,997.42
2023-11-07T03:44:38.782Z,997.46
2023-11-07T03:45:08.884Z,997.46
2023-11-07T03:45:38.751Z,997.47
2023-11-07T03:46:08.735Z,997.45
2023-11-07T03:46:38.739Z,997.48
2023-11-07T03:47:08.727Z,997.48
2023-11-07T03:47:38.784Z,997.48
2023-11-07T03:48:08.853Z,997.45
2023-11-07T03:48:38.840Z,997.44
2023-11-07T03:49:08.982Z,997.46
2023-11-07T03:49:38.703Z,997.41
2023-11-07T03:50:08.704Z,997.42
2023-11-07T03:50:38.721Z,997.45
2023-11-07T03:51:08.806Z,997.48
2023-11-07T03:51:38.690Z,997.50
2023-11-07T03:52:08.675Z,997.48
2023-11-07T03:52:38.679Z,997.48
2023-11-07T03:53:08.681Z,997.44
2023-11-07T03:53:38.675Z,997.42
2023-11-07T03:54:08.808Z,997.43
2023-11-07T03:54:38.649Z,997.45
2023-11-07T03:55:08.670Z,997.45
2023-11-07T03:55:38.637Z,997.44
2023-11-07T03:56:08.723Z,997.45
2023-11-07T03:56:38.656Z,997.44
2023-11-07T03:57:08.759Z,997.43
2023-11-07T03:57:38.676Z,997.43
2023-11-07T03:58:08.689Z,997.45
2023-11-07T03:58:38.609Z,997.46
2023-11-07T03:59:08.694Z,997.48
2023-11-07T03:59:38.634Z,997.48
2023-11-07T04:00:08.605Z,997.46
2023-11-07T04:00:38.598Z,997.49
2023-11-07T04:01:08.578Z,997.48
2023-11-07T04:01:38.586Z,997.46
2023-11-07T04:02:08.572Z,997.44
2023-11-07T04:02:38.602Z,997.45
2023-11-07T04:03:08.619Z,997.45
2023-11-07T04:03:38.671Z,997.45
2023-11-07T04:04:08.700Z,997.45
2023-11-07T04:04:38.558Z,997.43
2023-11-07T04:05:08.600Z,997.45
2023-11-07T04:05:38.604Z,997.48
2023-11-07T04:06:08.736Z,997.48
2023-11-07T04:06:38.585Z,997.46
2023-11-07T04:07:08.513Z,997.48
2023-11-07T04:07:38.508Z,997.47
2023-11-07T04:08:08.512Z,997.48
2023-11-07T04:08:38.578Z,997.46
2023-11-07T04:09:08.524Z,997.47
2023-11-07T04:09:38.498Z,997.48
2023-11-07T04:10:08.488Z,997.49
2023-11-07T04:10:38.512Z,997.47
2023-11-07T04:11:08.513Z,997.48
2023-11-07T04:11:38.478Z,997.48
2023-11-07T04:12:08.540Z,997.49
2023-11-07T04:12:38.460Z,997.51
2023-11-07T04:13:08.468Z,997.49
2023-11-07T04:13:38.442Z,997.49
2023-11-07T04:14:08.466Z,997.50
2023-11-07T04:14:38.470Z,997.52
2023-11-07T04:15:08.478Z,997.54
2023-11-07T04:15:38.424Z,997.54
2023-11-07T04:16:08.442Z,997.55
2023-11-07T04:16:38.417Z,997.57
2023-11-07T04:17:08.418Z,997.57
2023-11-07T04:17:38.580Z,997.58
2023-11-07T04:18:08.472Z,997.58
2023-11-07T04:18:38.576Z,997.59
2023-11-07T04:19:08.431Z,997.58
2023-11-07T04:19:38.414Z,997.57
2023-11-07T04:20:08.387Z,997.57
2023-11-07T04:20:38.386Z,997.54
2023-11-07T04:21:08.408Z,997.56
2023-11-07T04:21:38.396Z,997.58
2023-11-07T04:22:08.352Z,997.58
2023-11-07T04:22:38.347Z,997.58
2023-11-07T04:23:08.345Z,997.58
2023-11-07T04:23:38.383Z,997.60
2023-11-07T04:24:08.374Z,997.62
2023-11-07T04:24:38.364Z,997.60
2023-11-07T04:25:08.389Z,997.59
2023-11-07T04:25:38.328Z,997.61
2023-11-07T04:26:08.325Z,997.61
2023-11-07T04:26:38.345Z,997.59
2023-11-07T04:27:08.335Z,997.58
2023-11-07T04:27:38.302Z,997.58
2023-11-07T04:28:08.340Z,997.60
2023-11-07T04:28:38.340Z,997.60
2023-11-07T04:29:08.299Z,997.60
2023-11-07T04:29:38.440Z,997.60
2023-11-07T04:30:08.501Z,997.60
2023-11-07T04:30:38.336Z,997.59
2023-11-07T04:31:08.261Z,997.61
2023-11-07T04:31:38.312Z,997.61
2023-11-07T04:32:08.255Z,997.60
2023-11-07T04:32:38.364Z,997.60
2023-11-07T04:33:08.458Z,997.61
2023-11-07T04:33:38.455Z,997.64
2023-11-07T04:34:08.291Z,997.63
2023-11-07T04:34:38.236Z,997.62
2023-11-07T04:35:08.397Z,997.61
2023-11-07T04:35:38.467Z,997.63
2023-11-07T04:36:08.307Z,997.66
2023-11-07T04:36:38.438Z,997.67
2023-11-07T04:37:08.218Z,997.65
2023-11-07T04:37:38.193Z,997.65
2023-11-07T04:38:08.206Z,997.66
2023-11-07T04:38:38.365Z,997.64
2023-11-07T04:39:08.276Z,997.65
2023-11-07T04:39:38.210Z,997.64
2023-11-07T04:40:08.313Z,997.64
2023-11-07T04:40:38.176Z,997.66
2023-11-07T04:41:08.194Z,997.67
2023-11-07T04:41:38.222Z,997.68
2023-11-07T04:42:08.208Z,997.69
2023-11-07T04:42:38.134Z,997.69
2023-11-07T04:43:08.167Z,997.68
2023-11-07T04:43:38.197Z,997.69
2023-11-07T04:44:08.133Z,997.68
2023-11-07T04:44:38.175Z,997.68
2023-11-07T04:45:08.248Z,997.69
2023-11-07T04:45:38.183Z,997.68
2023-11-07T04:46:08.103Z,997.68
2023-11-07T04:46:38.103Z,997.69
2023-11-07T04:47:08.087Z,997.69
2023-11-07T04:47:38.281Z,997.71
2023-11-07T04:48:08.425Z,997.71
2023-11-07T04:48:38.171Z,997.71
2023-11-07T04:49:08.410Z,997.71
2023-11-07T04:49:38.272Z,997.70
2023-11-07T04:50:08.063Z,997.70
2023-11-07T04:50:38.084Z,997.70
2023-11-07T04:51:08.101Z,997.69
2023-11-07T04:51:38.073Z,997.68
2023-11-07T04:52:08.037Z,997.67
2023-11-07T04:52:38.077Z,997.67
2023-11-07T04:53:08.068Z,997.67
2023-11-07T04:53:38.023Z,997.68
2023-11-07T04:54:08.084Z,997.69
2023-11-07T04:54:38.084Z,997.69
2023-11-07T04:55:08.017Z,997.65
2023-11-07T04:55:37.999Z,997.63
2023-11-07T04:56:07.996Z,997.65
2023-11-07T04:56:38.017Z,997.64
2023-11-07T04:57:08.019Z,997.64
2023-11-07T04:57:37.981Z,997.65
2023-11-07T04:58:07.980Z,997.66
2023-11-07T04:58:56.362Z,997.65
2023-11-07T04:59:07.967Z,997.65
2023-11-07T04:59:38.038Z,997.63
2023-11-07T05:00:08.072Z,997.61
2023-11-07T05:00:37.943Z,997.58
2023-11-07T05:01:07.949Z,997.58
2023-11-07T05:01:37.941Z,997.60
2023-11-07T05:02:07.934Z,997.59
2023-11-07T05:02:38.040Z,997.56
2023-11-07T05:03:08.094Z,997.58
2023-11-07T05:03:41.216Z,997.57
2023-11-07T05:04:08.134Z,997.56
2023-11-07T05:04:37.966Z,997.57
2023-11-07T05:05:07.904Z,997.56
2023-11-07T05:05:38.001Z,997.57
2023-11-07T05:06:07.922Z,997.59
2023-11-07T05:06:38.030Z,997.56
2023-11-07T05:07:07.926Z,997.57
2023-11-07T05:07:37.876Z,997.55
2023-11-07T05:08:07.886Z,997.55
2023-11-07T05:08:37.906Z,997.55
2023-11-07T05:09:07.937Z,997.58
2023-11-07T05:09:37.871Z,997.56
2023-11-07T05:10:07.858Z,997.56
2023-11-07T05:10:37.860Z,997.59
2023-11-07T05:11:07.865Z,997.57
2023-11-07T05:11:37.911Z,997.55
2023-11-07T05:12:07.870Z,997.54
2023-11-07T05:12:37.829Z,997.54
2023-11-07T05:13:07.838Z,997.54
2023-11-07T05:13:37.818Z,997.56
2023-11-07T05:14:07.818Z,997.54
2023-11-07T05:14:37.819Z,997.53
2023-11-07T05:15:07.826Z,997.56
2023-11-07T05:15:37.801Z,997.58
2023-11-07T05:16:07.817Z,997.58
2023-11-07T05:16:37.802Z,997.55
2023-11-07T05:17:07.782Z,997.51
2023-11-07T05:17:37.859Z,997.52
2023-11-07T05:18:07.920Z,997.55
2023-11-07T05:18:37.869Z,997.54
2023-11-07T05:19:07.833Z,997.56
2023-11-07T05:19:37.753Z,997.54
2023-11-07T05:20:07.754Z,997.53
2023-11-07T05:20:37.792Z,997.57
2023-11-07T05:21:07.790Z,997.56
2023-11-07T05:21:37.848Z,997.55
2023-11-07T05:22:07.742Z,997.53
2023-11-07T05:22:37.729Z,997.53
2023-11-07T05:23:07.717Z,997.56
2023-11-07T05:23:37.725Z,997.58
2023-11-07T05:24:07.767Z,997.56
2023-11-07T05:24:37.730Z,997.59
2023-11-07T05:25:07.720Z,997.61
2023-11-07T05:25:37.694Z,997.62
2023-11-07T05:26:07.706Z,997.60
2023-11-07T05:26:37.743Z,997.61
2023-11-07T05:27:07.732Z,997.62
2023-11-07T05:27:37.697Z,997.63
2023-11-07T05:28:07.672Z,997.64
2023-11-07T05:28:37.670Z,997.64
2023-11-07T05:29:07.677Z,997.62
2023-11-07T05:29:37.721Z,997.66
2023-11-07T05:30:07.682Z,997.63
2023-11-07T05:30:37.636Z,997.64
2023-11-07T05:31:07.640Z,997.64
2023-11-07T05:31:37.629Z,997.63
2023-11-07T05:32:07.619Z,997.66
2023-11-07T05:32:37.678Z,997.66
2023-11-07T05:33:07.715Z,997.68
2023-11-07T05:33:37.736Z,997.65
2023-11-07T05:34:07.667Z,997.66
2023-11-07T05:34:37.686Z,997.67
2023-11-07T05:35:07.628Z,997.69
2023-11-07T05:35:37.615Z,997.70
2023-11-07T05:36:07.694Z,997.71
2023-11-07T05:36:37.577Z,997.69
2023-11-07T05:37:07.580Z,997.67
2023-11-07T05:37:37.564Z,997.68
2023-11-07T05:38:07.570Z,997.67
2023-11-07T05:38:37.613Z,997.67
2023-11-07T05:39:07.597Z,997.69
2023-11-07T05:39:37.547Z,997.68
2023-11-07T05:40:07.549Z,997.68
2023-11-07T05:40:37.547Z,997.69
2023-11-07T05:41:07.529Z,997.69
2023-11-07T05:41:37.552Z,997.69
2023-11-07T05:42:07.542Z,997.69
2023-11-07T05:42:37.530Z,997.68
2023-11-07T05:43:07.508Z,997.66
2023-11-07T05:43:37.513Z,997.67
2023-11-07T05:44:07.515Z,997.71
2023-11-07T05:44:37.561Z,997.69
2023-11-07T05:45:07.533Z,997.70
2023-11-07T05:45:37.490Z,997.71
2023-11-07T05:46:07.490Z,997.70
2023-11-07T05:46:37.484Z,997.74
2023-11-07T05:47:07.465Z,997.73
2023-11-07T05:47:37.541Z,997.74
2023-11-07T05:48:07.544Z,997.73
2023-11-07T05:48:37.799Z,997.74
2023-11-07T05:49:07.536Z,997.74
2023-11-07T05:49:37.472Z,997.76
2023-11-07T05:50:07.442Z,997.73
2023-11-07T05:50:37.475Z,997.77
2023-11-07T05:51:07.525Z,997.76
2023-11-07T05:51:37.445Z,997.77
2023-11-07T05:52:07.429Z,997.75
2023-11-07T05:52:37.408Z,997.80
2023-11-07T05:53:07.401Z,997.81
2023-11-07T05:53:37.443Z,997.82
2023-11-07T05:54:07.423Z,997.80
2023-11-07T05:54:37.383Z,997.80
2023-11-07T05:55:07.441Z,997.80
2023-11-07T05:55:37.388Z,997.83
2023-11-07T05:56:07.365Z,997.83
2023-11-07T05:56:37.409Z,997.83
2023-11-07T05:57:07.390Z,997.85
2023-11-07T05:57:37.373Z,997.86
2023-11-07T05:58:07.340Z,997.87
2023-11-07T05:58:37.331Z,997.87
2023-11-07T05:59:07.345Z,997.85
2023-11-07T05:59:37.361Z,997.85
2023-11-07T06:00:07.382Z,997.84
2023-11-07T06:00:37.343Z,997.89
2023-11-07T06:01:07.310Z,997.89
2023-11-07T06:01:37.308Z,997.87
2023-11-07T06:02:07.290Z,997.90
2023-11-07T06:02:37.376Z,997.92
2023-11-07T06:03:07.441Z,997.90
2023-11-07T06:03:37.369Z,997.91
2023-11-07T06:04:07.308Z,997.93
2023-11-07T06:04:37.271Z,997.93
2023-11-07T06:05:07.314Z,997.95
2023-11-07T06:05:37.318Z,997.96
2023-11-07T06:06:07.294Z,997.94
2023-11-07T06:06:37.273Z,997.96
2023-11-07T06:07:07.245Z,997.96
2023-11-07T06:07:37.231Z,997.98
2023-11-07T06:08:07.238Z,997.97
2023-11-07T06:08:37.256Z,997.96
2023-11-07T06:09:07.260Z,997.95
2023-11-07T06:09:37.213Z,997.97
2023-11-07T06:10:07.216Z,997.97
2023-11-07T06:10:37.202Z,997.98
2023-11-07T06:11:07.195Z,998.00
2023-11-07T06:11:37.248Z,997.97
2023-11-07T06:12:09.235Z,997.97
2023-11-07T06:12:37.191Z,997.98
2023-11-07T06:13:07.169Z,997.99
2023-11-07T06:13:37.168Z,997.99
2023-11-07T06:14:07.160Z,997.96